sensor_id;sensor_type;location;lat;lon;timestamp;P1;durP1;ratioP1;P2;durP2;ratioP2
31724;SDS011;18306;40.960;14.836;2023-02-13T00:00:35;13.50;;;7.63;;
31724;SDS011;18306;40.960;14.836;2023-02-13T00:03:03;16.15;;;8.25;;
31724;SDS011;18306;40.960;14.836;2023-02-13T00:05:31;15.68;;;8.05;;
31724;SDS011;18306;40.960;14.836;2023-02-13T00:07:58;16.45;;;7.65;;
31724;SDS011;18306;40.960;14.836;2023-02-13T00:10:25;16.17;;;7.90;;
31724;SDS011;18306;40.960;14.836;2023-02-13T00:12:52;27.10;;;8.50;;
31724;SDS011;18306;40.960;14.836;2023-02-13T00:15:20;20.30;;;9.32;;
31724;SDS011;18306;40.960;14.836;2023-02-13T00:17:47;17.88;;;9.32;;
31724;SDS011;18306;40.960;14.836;2023-02-13T00:20:14;24.35;;;9.88;;
31724;SDS011;18306;40.960;14.836;2023-02-13T00:22:41;19.00;;;9.75;;
31724;SDS011;18306;40.960;14.836;2023-02-13T00:25:08;19.77;;;7.00;;
31724;SDS011;18306;40.960;14.836;2023-02-13T00:27:36;15.70;;;7.57;;
31724;SDS011;18306;40.960;14.836;2023-02-13T00:30:03;15.23;;;7.55;;
31724;SDS011;18306;40.960;14.836;2023-02-13T00:32:31;19.35;;;8.07;;
31724;SDS011;18306;40.960;14.836;2023-02-13T00:35:01;20.05;;;10.43;;
31724;SDS011;18306;40.960;14.836;2023-02-13T00:37:29;28.25;;;11.77;;
31724;SDS011;18306;40.960;14.836;2023-02-13T00:39:56;28.10;;;10.02;;
31724;SDS011;18306;40.960;14.836;2023-02-13T00:42:23;29.10;;;10.18;;
31724;SDS011;18306;40.960;14.836;2023-02-13T00:44:52;18.10;;;9.48;;
31724;SDS011;18306;40.960;14.836;2023-02-13T00:47:19;19.52;;;8.85;;
31724;SDS011;18306;40.960;14.836;2023-02-13T00:49:47;23.17;;;7.47;;
31724;SDS011;18306;40.960;14.836;2023-02-13T00:52:14;16.08;;;7.22;;
31724;SDS011;18306;40.960;14.836;2023-02-13T00:54:44;15.85;;;7.40;;
31724;SDS011;18306;40.960;14.836;2023-02-13T00:57:12;16.10;;;6.60;;
31724;SDS011;18306;40.960;14.836;2023-02-13T00:59:48;12.73;;;6.78;;
31724;SDS011;18306;40.960;14.836;2023-02-13T01:02:15;11.15;;;6.20;;
31724;SDS011;18306;40.960;14.836;2023-02-13T01:04:45;15.80;;;7.20;;
31724;SDS011;18306;40.960;14.836;2023-02-13T01:07:13;11.10;;;5.53;;
31724;SDS011;18306;40.960;14.836;2023-02-13T01:09:45;15.25;;;6.43;;
31724;SDS011;18306;40.960;14.836;2023-02-13T01:12:13;13.05;;;6.82;;
31724;SDS011;18306;40.960;14.836;2023-02-13T01:14:42;13.75;;;6.68;;
31724;SDS011;18306;40.960;14.836;2023-02-13T01:17:09;11.55;;;5.78;;
31724;SDS011;18306;40.960;14.836;2023-02-13T01:19:39;10.57;;;5.05;;
31724;SDS011;18306;40.960;14.836;2023-02-13T01:22:06;12.77;;;5.53;;
31724;SDS011;18306;40.960;14.836;2023-02-13T01:24:34;9.57;;;5.43;;
31724;SDS011;18306;40.960;14.836;2023-02-13T01:27:01;15.23;;;6.28;;
31724;SDS011;18306;40.960;14.836;2023-02-13T01:29:29;13.75;;;6.03;;
31724;SDS011;18306;40.960;14.836;2023-02-13T01:31:56;16.77;;;7.43;;
31724;SDS011;18306;40.960;14.836;2023-02-13T01:34:26;12.82;;;5.82;;
31724;SDS011;18306;40.960;14.836;2023-02-13T01:36:53;11.85;;;5.53;;
31724;SDS011;18306;40.960;14.836;2023-02-13T01:39:24;14.50;;;6.20;;
31724;SDS011;18306;40.960;14.836;2023-02-13T01:41:51;14.55;;;7.00;;
31724;SDS011;18306;40.960;14.836;2023-02-13T01:50:11;16.50;;;6.25;;
31724;SDS011;18306;40.960;14.836;2023-02-13T01:52:46;19.27;;;6.40;;
31724;SDS011;18306;40.960;14.836;2023-02-13T01:55:16;9.90;;;5.45;;
31724;SDS011;18306;40.960;14.836;2023-02-13T01:57:46;14.77;;;6.53;;
31724;SDS011;18306;40.960;14.836;2023-02-13T02:00:21;12.18;;;5.47;;
31724;SDS011;18306;40.960;14.836;2023-02-13T02:02:50;13.15;;;5.28;;
31724;SDS011;18306;40.960;14.836;2023-02-13T02:05:27;8.43;;;5.13;;
31724;SDS011;18306;40.960;14.836;2023-02-13T02:07:58;11.48;;;5.40;;
31724;SDS011;18306;40.960;14.836;2023-02-13T02:10:30;14.88;;;5.90;;
31724;SDS011;18306;40.960;14.836;2023-02-13T02:13:06;7.40;;;4.43;;
31724;SDS011;18306;40.960;14.836;2023-02-13T02:18:14;10.48;;;4.80;;
31724;SDS011;18306;40.960;14.836;2023-02-13T02:29:40;6.90;;;4.40;;
31724;SDS011;18306;40.960;14.836;2023-02-13T02:32:22;10.27;;;4.88;;
31724;SDS011;18306;40.960;14.836;2023-02-13T02:37:56;7.72;;;3.92;;
31724;SDS011;18306;40.960;14.836;2023-02-13T02:40:50;15.32;;;4.43;;
31724;SDS011;18306;40.960;14.836;2023-02-13T02:45:59;8.70;;;5.10;;
31724;SDS011;18306;40.960;14.836;2023-02-13T02:49:06;9.70;;;4.07;;
31724;SDS011;18306;40.960;14.836;2023-02-13T02:57:45;7.70;;;4.28;;
31724;SDS011;18306;40.960;14.836;2023-02-13T03:00:36;10.02;;;4.18;;
31724;SDS011;18306;40.960;14.836;2023-02-13T03:03:26;9.02;;;5.05;;
31724;SDS011;18306;40.960;14.836;2023-02-13T03:06:17;11.15;;;5.13;;
31724;SDS011;18306;40.960;14.836;2023-02-13T03:09:03;10.18;;;4.82;;
31724;SDS011;18306;40.960;14.836;2023-02-13T03:11:54;11.35;;;5.20;;
31724;SDS011;18306;40.960;14.836;2023-02-13T03:14:41;11.68;;;6.32;;
31724;SDS011;18306;40.960;14.836;2023-02-13T03:17:10;16.10;;;5.65;;
31724;SDS011;18306;40.960;14.836;2023-02-13T03:24:03;18.42;;;7.20;;
31724;SDS011;18306;40.960;14.836;2023-02-13T03:26:36;15.63;;;6.25;;
31724;SDS011;18306;40.960;14.836;2023-02-13T03:38:23;8.68;;;4.57;;
31724;SDS011;18306;40.960;14.836;2023-02-13T03:41:03;8.43;;;4.60;;
31724;SDS011;18306;40.960;14.836;2023-02-13T03:44:45;6.45;;;3.95;;
31724;SDS011;18306;40.960;14.836;2023-02-13T03:46:41;5.75;;;3.83;;
31724;SDS011;18306;40.960;14.836;2023-02-13T03:49:16;6.07;;;4.55;;
31724;SDS011;18306;40.960;14.836;2023-02-13T03:52:08;7.35;;;3.95;;
31724;SDS011;18306;40.960;14.836;2023-02-13T03:57:50;6.55;;;4.03;;
31724;SDS011;18306;40.960;14.836;2023-02-13T04:00:40;9.07;;;3.85;;
31724;SDS011;18306;40.960;14.836;2023-02-13T04:03:12;7.93;;;4.60;;
31724;SDS011;18306;40.960;14.836;2023-02-13T04:05:50;11.20;;;4.53;;
31724;SDS011;18306;40.960;14.836;2023-02-13T04:08:32;11.95;;;4.07;;
31724;SDS011;18306;40.960;14.836;2023-02-13T04:11:06;6.15;;;3.75;;
31724;SDS011;18306;40.960;14.836;2023-02-13T04:13:56;13.05;;;4.57;;
31724;SDS011;18306;40.960;14.836;2023-02-13T04:16:31;9.77;;;4.10;;
31724;SDS011;18306;40.960;14.836;2023-02-13T04:19:02;10.82;;;5.32;;
31724;SDS011;18306;40.960;14.836;2023-02-13T04:21:35;9.93;;;4.80;;
31724;SDS011;18306;40.960;14.836;2023-02-13T04:24:05;8.48;;;4.45;;
31724;SDS011;18306;40.960;14.836;2023-02-13T04:26:40;7.90;;;4.28;;
31724;SDS011;18306;40.960;14.836;2023-02-13T04:29:08;7.60;;;4.20;;
31724;SDS011;18306;40.960;14.836;2023-02-13T04:31:36;9.80;;;4.63;;
31724;SDS011;18306;40.960;14.836;2023-02-13T04:34:06;10.65;;;4.55;;
31724;SDS011;18306;40.960;14.836;2023-02-13T04:36:36;10.20;;;4.43;;
31724;SDS011;18306;40.960;14.836;2023-02-13T04:39:03;8.90;;;4.28;;
31724;SDS011;18306;40.960;14.836;2023-02-13T04:41:31;5.38;;;3.47;;
31724;SDS011;18306;40.960;14.836;2023-02-13T04:43:59;13.35;;;5.43;;
31724;SDS011;18306;40.960;14.836;2023-02-13T04:46:26;12.55;;;6.32;;
31724;SDS011;18306;40.960;14.836;2023-02-13T04:48:53;13.27;;;6.45;;
31724;SDS011;18306;40.960;14.836;2023-02-13T04:51:20;10.80;;;4.60;;
31724;SDS011;18306;40.960;14.836;2023-02-13T04:53:47;13.60;;;5.13;;
31724;SDS011;18306;40.960;14.836;2023-02-13T04:56:14;8.60;;;4.18;;
31724;SDS011;18306;40.960;14.836;2023-02-13T04:58:41;12.30;;;4.78;;
31724;SDS011;18306;40.960;14.836;2023-02-13T05:01:12;10.90;;;4.22;;
31724;SDS011;18306;40.960;14.836;2023-02-13T05:03:40;6.50;;;3.78;;
31724;SDS011;18306;40.960;14.836;2023-02-13T05:06:08;6.25;;;3.50;;
31724;SDS011;18306;40.960;14.836;2023-02-13T05:08:35;9.13;;;4.43;;
31724;SDS011;18306;40.960;14.836;2023-02-13T05:11:03;8.48;;;4.40;;
31724;SDS011;18306;40.960;14.836;2023-02-13T05:13:30;11.30;;;4.38;;
31724;SDS011;18306;40.960;14.836;2023-02-13T05:15:57;11.55;;;4.07;;
31724;SDS011;18306;40.960;14.836;2023-02-13T05:18:24;7.65;;;5.07;;
31724;SDS011;18306;40.960;14.836;2023-02-13T05:20:51;17.65;;;7.78;;
31724;SDS011;18306;40.960;14.836;2023-02-13T05:23:36;23.92;;;7.65;;
31724;SDS011;18306;40.960;14.836;2023-02-13T05:26:04;13.60;;;5.93;;
31724;SDS011;18306;40.960;14.836;2023-02-13T05:28:31;9.25;;;4.13;;
31724;SDS011;18306;40.960;14.836;2023-02-13T05:31:17;11.35;;;5.57;;
31724;SDS011;18306;40.960;14.836;2023-02-13T05:33:44;14.93;;;6.15;;
31724;SDS011;18306;40.960;14.836;2023-02-13T05:36:11;9.90;;;5.18;;
31724;SDS011;18306;40.960;14.836;2023-02-13T05:38:38;12.13;;;5.03;;
31724;SDS011;18306;40.960;14.836;2023-02-13T05:41:06;8.95;;;4.45;;
31724;SDS011;18306;40.960;14.836;2023-02-13T05:43:39;5.70;;;3.67;;
31724;SDS011;18306;40.960;14.836;2023-02-13T05:46:07;9.32;;;4.30;;
31724;SDS011;18306;40.960;14.836;2023-02-13T05:48:40;9.70;;;4.82;;
